sensor_id;sensor_type;location;lat;lon;timestamp;P1;durP1;ratioP1;P2;durP2;ratioP2
75356;SDS011;63946;51.986;5.930;2023-04-01T05:10:39;5.03;;;4.07;;
75356;SDS011;63946;51.986;5.930;2023-04-01T05:13:09;4.97;;;4.28;;
75356;SDS011;63946;51.986;5.930;2023-04-01T05:15:39;4.78;;;3.80;;
75356;SDS011;63946;51.986;5.930;2023-04-01T05:18:11;7.25;;;5.57;;
75356;SDS011;63946;51.986;5.930;2023-04-01T05:20:45;7.97;;;6.50;;
75356;SDS011;63946;51.986;5.930;2023-04-01T05:23:18;7.55;;;4.72;;
75356;SDS011;63946;51.986;5.930;2023-04-01T05:25:49;6.30;;;5.35;;
75356;SDS011;63946;51.986;5.930;2023-04-01T05:28:19;6.63;;;5.28;;
75356;SDS011;63946;51.986;5.930;2023-04-01T05:30:48;6.18;;;4.53;;
75356;SDS011;63946;51.986;5.930;2023-04-01T05:33:21;6.63;;;4.65;;
75356;SDS011;63946;51.986;5.930;2023-04-01T05:35:50;5.38;;;4.88;;
75356;SDS011;63946;51.986;5.930;2023-04-01T05:38:19;4.93;;;4.35;;
75356;SDS011;63946;51.986;5.930;2023-04-01T05:40:49;4.63;;;3.58;;
75356;SDS011;63946;51.986;5.930;2023-04-01T05:43:18;4.32;;;3.72;;
75356;SDS011;63946;51.986;5.930;2023-04-01T05:45:49;4.00;;;3.38;;
75356;SDS011;63946;51.986;5.930;2023-04-01T05:48:38;4.20;;;3.22;;
75356;SDS011;63946;51.986;5.930;2023-04-01T05:51:11;4.53;;;4.10;;
75356;SDS011;63946;51.986;5.930;2023-04-01T05:53:42;4.72;;;3.70;;
75356;SDS011;63946;51.986;5.930;2023-04-01T05:56:13;3.60;;;3.30;;
75356;SDS011;63946;51.986;5.930;2023-04-01T05:58:50;4.35;;;2.67;;
75356;SDS011;63946;51.986;5.930;2023-04-01T06:01:22;4.03;;;3.20;;
75356;SDS011;63946;51.986;5.930;2023-04-01T06:03:51;3.60;;;3.03;;
75356;SDS011;63946;51.986;5.930;2023-04-01T06:06:23;6.93;;;4.43;;
75356;SDS011;63946;51.986;5.930;2023-04-01T06:09:05;7.30;;;4.65;;
75356;SDS011;63946;51.986;5.930;2023-04-01T06:12:37;7.90;;;4.22;;
75356;SDS011;63946;51.986;5.930;2023-04-01T06:15:18;7.70;;;4.63;;
75356;SDS011;63946;51.986;5.930;2023-04-01T06:32:01;8.68;;;5.32;;
75356;SDS011;63946;51.986;5.930;2023-04-01T06:40:57;11.00;;;6.10;;
75356;SDS011;63946;51.986;5.930;2023-04-01T06:50:30;11.10;;;5.90;;
75356;SDS011;63946;51.986;5.930;2023-04-01T06:59:57;12.75;;;6.93;;
75356;SDS011;63946;51.986;5.930;2023-04-01T07:02:48;7.85;;;4.20;;
75356;SDS011;63946;51.986;5.930;2023-04-01T07:05:24;5.80;;;3.28;;
75356;SDS011;63946;51.986;5.930;2023-04-01T07:07:59;6.53;;;4.30;;
75356;SDS011;63946;51.986;5.930;2023-04-01T07:10:39;5.78;;;3.78;;
75356;SDS011;63946;51.986;5.930;2023-04-01T07:13:46;6.05;;;3.55;;
75356;SDS011;63946;51.986;5.930;2023-04-01T07:19:24;6.03;;;3.97;;
75356;SDS011;63946;51.986;5.930;2023-04-01T07:28:15;4.80;;;3.03;;
75356;SDS011;63946;51.986;5.930;2023-04-01T07:31:01;4.25;;;2.90;;
75356;SDS011;63946;51.986;5.930;2023-04-01T07:33:39;4.28;;;2.70;;
75356;SDS011;63946;51.986;5.930;2023-04-01T19:35:47;5.18;;;4.68;;
75356;SDS011;63946;51.986;5.930;2023-04-01T19:38:49;6.78;;;5.75;;
75356;SDS011;63946;51.986;5.930;2023-04-01T19:41:45;6.90;;;5.47;;
75356;SDS011;63946;51.986;5.930;2023-04-01T19:44:44;6.55;;;5.50;;
75356;SDS011;63946;51.986;5.930;2023-04-01T19:53:22;5.60;;;4.40;;
75356;SDS011;63946;51.986;5.930;2023-04-01T20:04:47;6.63;;;5.70;;
75356;SDS011;63946;51.986;5.930;2023-04-01T20:07:58;7.40;;;6.15;;
75356;SDS011;63946;51.986;5.930;2023-04-01T20:10:28;7.00;;;6.25;;
75356;SDS011;63946;51.986;5.930;2023-04-01T20:16:14;7.10;;;6.40;;
75356;SDS011;63946;51.986;5.930;2023-04-01T20:18:59;7.15;;;6.07;;
75356;SDS011;63946;51.986;5.930;2023-04-01T20:24:08;7.68;;;6.03;;
75356;SDS011;63946;51.986;5.930;2023-04-01T20:26:48;7.40;;;5.63;;
75356;SDS011;63946;51.986;5.930;2023-04-01T20:34:49;6.88;;;6.00;;
75356;SDS011;63946;51.986;5.930;2023-04-01T20:51:22;8.82;;;7.88;;
75356;SDS011;63946;51.986;5.930;2023-04-01T20:54:10;9.40;;;7.95;;
75356;SDS011;63946;51.986;5.930;2023-04-01T21:11:14;10.13;;;8.10;;
75356;SDS011;63946;51.986;5.930;2023-04-01T21:13:58;8.88;;;7.55;;
75356;SDS011;63946;51.986;5.930;2023-04-01T21:16:39;9.73;;;7.30;;
75356;SDS011;63946;51.986;5.930;2023-04-01T21:19:41;10.30;;;8.57;;
75356;SDS011;63946;51.986;5.930;2023-04-01T21:31:18;7.43;;;6.63;;
75356;SDS011;63946;51.986;5.930;2023-04-01T21:34:34;8.25;;;6.53;;
75356;SDS011;63946;51.986;5.930;2023-04-01T21:37:44;7.93;;;6.82;;
75356;SDS011;63946;51.986;5.930;2023-04-01T21:40:50;7.00;;;6.30;;
75356;SDS011;63946;51.986;5.930;2023-04-01T21:46:43;6.70;;;6.00;;
75356;SDS011;63946;51.986;5.930;2023-04-01T21:49:43;8.23;;;6.43;;
75356;SDS011;63946;51.986;5.930;2023-04-01T21:58:30;7.68;;;5.53;;
75356;SDS011;63946;51.986;5.930;2023-04-01T22:01:26;7.07;;;6.38;;
75356;SDS011;63946;51.986;5.930;2023-04-01T22:09:39;6.13;;;5.53;;
75356;SDS011;63946;51.986;5.930;2023-04-01T22:21:23;7.72;;;6.93;;
75356;SDS011;63946;51.986;5.930;2023-04-01T22:24:00;6.75;;;6.05;;
75356;SDS011;63946;51.986;5.930;2023-04-01T22:26:57;7.40;;;6.50;;
75356;SDS011;63946;51.986;5.930;2023-04-01T22:29:34;5.97;;;5.38;;
75356;SDS011;63946;51.986;5.930;2023-04-01T22:32:16;7.90;;;6.75;;
75356;SDS011;63946;51.986;5.930;2023-04-01T22:40:25;7.07;;;6.38;;
75356;SDS011;63946;51.986;5.930;2023-04-01T22:43:11;7.18;;;6.47;;
75356;SDS011;63946;51.986;5.930;2023-04-01T22:54:04;7.75;;;5.72;;
75356;SDS011;63946;51.986;5.930;2023-04-01T22:56:53;8.48;;;6.25;;
75356;SDS011;63946;51.986;5.930;2023-04-01T22:59:31;6.30;;;5.70;;
75356;SDS011;63946;51.986;5.930;2023-04-01T23:02:11;5.70;;;5.05;;
75356;SDS011;63946;51.986;5.930;2023-04-01T23:05:00;8.93;;;6.05;;
75356;SDS011;63946;51.986;5.930;2023-04-01T23:10:58;7.97;;;5.50;;
75356;SDS011;63946;51.986;5.930;2023-04-01T23:13:29;5.97;;;5.38;;
75356;SDS011;63946;51.986;5.930;2023-04-01T23:16:05;6.80;;;5.90;;
75356;SDS011;63946;51.986;5.930;2023-04-01T23:21:26;6.13;;;5.38;;
75356;SDS011;63946;51.986;5.930;2023-04-01T23:24:36;8.23;;;6.63;;
75356;SDS011;63946;51.986;5.930;2023-04-01T23:27:29;8.23;;;7.40;;
75356;SDS011;63946;51.986;5.930;2023-04-01T23:35:47;8.25;;;7.30;;
75356;SDS011;63946;51.986;5.930;2023-04-01T23:38:32;8.00;;;7.20;;
75356;SDS011;63946;51.986;5.930;2023-04-01T23:41:04;8.57;;;7.40;;
75356;SDS011;63946;51.986;5.930;2023-04-01T23:43:38;8.73;;;6.80;;
75356;SDS011;63946;51.986;5.930;2023-04-01T23:46:12;8.85;;;6.80;;
75356;SDS011;63946;51.986;5.930;2023-04-01T23:48:43;8.70;;;7.75;;
75356;SDS011;63946;51.986;5.930;2023-04-01T23:54:00;8.02;;;6.97;;
75356;SDS011;63946;51.986;5.930;2023-04-01T23:56:33;7.65;;;6.72;;
75356;SDS011;63946;51.986;5.930;2023-04-01T23:59:09;13.32;;;7.20;;
